Terminal Aerodrome Forecast
Issued by NWS

Home | Current Version | Previous Version | Text Only | Print | Product List | Glossary On
Versions: 1 2 3 4 5 6 7 8 9 10 11 12 13 14 15 16 17 18 19 20
913
FTUS41 KCAR 220540
TAFHUL
TAF
KHUL 220540Z 2206/2306 19005KT P6SM SCT110 BKN250
     FM222200 19010KT P6SM VCSH BKN050
     FM230000 19011G20KT 5SM SHRA BR VCTS OVC040CB=

USA.gov is the U.S. government's official web portal to all federal, state and local government web resources and services.